createdAt,value
2019-02-25T00:01:34.283Z,48.00
2019-02-25T00:03:54.572Z,47.00
2019-02-25T00:06:15.830Z,47.10
2019-02-25T00:08:36.154Z,47.60
2019-02-25T00:10:57.383Z,47.60
2019-02-25T00:13:17.736Z,48.10
2019-02-25T00:15:37.982Z,48.50
2019-02-25T00:17:58.435Z,48.60
2019-02-25T00:20:18.719Z,48.40
2019-02-25T00:22:39.001Z,47.90
2019-02-25T00:24:59.346Z,48.00
2019-02-25T00:27:19.602Z,47.60
2019-02-25T00:29:39.873Z,48.20
2019-02-25T00:32:00.118Z,48.20
2019-02-25T00:34:20.410Z,47.70
2019-02-25T00:36:40.672Z,47.50
2019-02-25T00:39:00.957Z,48.10
2019-02-25T00:41:22.918Z,48.70
2019-02-25T00:43:43.190Z,49.40
2019-02-25T00:46:03.493Z,49.80
2019-02-25T00:48:23.764Z,49.50
2019-02-25T00:50:44.099Z,50.10
2019-02-25T00:53:04.401Z,49.40
2019-02-25T00:55:24.786Z,49.50
2019-02-25T00:57:45.043Z,49.60
2019-02-25T01:00:08.561Z,49.10
2019-02-25T01:02:28.844Z,49.40
2019-02-25T01:04:49.111Z,49.70
2019-02-25T01:07:09.426Z,50.20
2019-02-25T01:09:29.731Z,50.50
2019-02-25T01:11:49.978Z,50.20
2019-02-25T01:14:10.254Z,50.00
2019-02-25T01:16:30.524Z,49.70
2019-02-25T01:18:50.783Z,49.80
2019-02-25T01:21:11.106Z,49.80
2019-02-25T01:23:31.435Z,49.90
2019-02-25T01:25:51.698Z,50.10
2019-02-25T01:28:12.134Z,49.90
2019-02-25T01:30:32.532Z,50.00
2019-02-25T01:32:52.823Z,50.50
2019-02-25T01:35:13.536Z,51.40
2019-02-25T01:37:34.906Z,52.20
2019-02-25T01:39:55.292Z,52.30
2019-02-25T01:42:15.614Z,52.20
2019-02-25T01:44:35.902Z,52.30
2019-02-25T01:46:56.170Z,51.50
2019-02-25T01:49:16.486Z,51.50
2019-02-25T01:51:36.778Z,51.40
2019-02-25T01:53:57.117Z,51.80
2019-02-25T01:56:17.475Z,51.50
2019-02-25T01:58:37.767Z,51.50
2019-02-25T02:00:58.115Z,51.60
2019-02-25T02:03:18.442Z,51.50
2019-02-25T02:05:38.727Z,51.60
2019-02-25T02:07:59.024Z,51.90
2019-02-25T02:10:19.308Z,52.10
2019-02-25T02:12:39.721Z,52.00
2019-02-25T02:15:00.017Z,52.20
2019-02-25T02:17:20.273Z,52.60
2019-02-25T02:19:40.535Z,53.00
2019-02-25T02:22:00.820Z,53.10
2019-02-25T02:24:21.153Z,53.00
2019-02-25T02:26:41.423Z,53.00
2019-02-25T02:29:02.645Z,52.80
2019-02-25T02:31:22.902Z,52.50
2019-02-25T02:33:43.190Z,52.70
2019-02-25T02:36:03.480Z,53.40
2019-02-25T02:38:23.735Z,53.30
2019-02-25T02:40:44.048Z,53.30
2019-02-25T02:43:04.310Z,53.30
2019-02-25T02:45:46.261Z,53.00
2019-02-25T02:48:12.759Z,52.90
2019-02-25T02:50:33.033Z,53.00
2019-02-25T02:52:53.319Z,52.90
2019-02-25T02:55:13.648Z,53.00
2019-02-25T02:57:33.936Z,52.90
2019-02-25T02:59:54.218Z,53.10
2019-02-25T03:02:14.482Z,53.30
2019-02-25T03:04:34.761Z,53.40
2019-02-25T03:06:55.036Z,53.60
2019-02-25T03:09:15.365Z,53.60
2019-02-25T03:11:35.639Z,53.30
2019-02-25T03:13:55.938Z,53.30
2019-02-25T03:16:16.188Z,53.50
2019-02-25T03:18:36.506Z,54.10
2019-02-25T03:20:57.113Z,53.80
2019-02-25T03:23:17.381Z,53.80
2019-02-25T03:25:37.641Z,53.90
2019-02-25T03:27:57.917Z,53.60
2019-02-25T03:30:21.671Z,53.70
2019-02-25T03:32:41.999Z,53.80
2019-02-25T03:35:02.311Z,53.90
2019-02-25T03:37:22.588Z,53.40
2019-02-25T03:39:43.039Z,53.50
2019-02-25T03:42:03.408Z,53.60
2019-02-25T03:44:23.739Z,53.40
2019-02-25T03:46:44.091Z,53.80
2019-02-25T03:49:04.409Z,54.10
2019-02-25T03:51:24.667Z,54.10
2019-02-25T03:53:45.018Z,54.20
2019-02-25T03:56:05.359Z,54.40
2019-02-25T03:58:25.705Z,54.60
2019-02-25T04:00:45.953Z,55.00
2019-02-25T04:03:06.219Z,55.30
2019-02-25T04:05:26.932Z,55.70
2019-02-25T04:07:47.250Z,55.80
2019-02-25T04:10:09.806Z,55.80
2019-02-25T04:12:29.805Z,56.70
2019-02-25T04:14:50.154Z,57.00
2019-02-25T04:17:10.406Z,57.00
2019-02-25T04:19:30.695Z,57.10
2019-02-25T04:21:51.004Z,57.10
2019-02-25T04:24:11.352Z,56.90
2019-02-25T04:26:31.621Z,56.70
2019-02-25T04:28:51.878Z,56.60
2019-02-25T04:31:12.186Z,56.60
2019-02-25T04:33:32.494Z,56.70
2019-02-25T04:35:53.579Z,56.90
2019-02-25T04:38:14.125Z,56.80
2019-02-25T04:40:34.838Z,57.00
2019-02-25T04:42:55.163Z,56.70
2019-02-25T04:45:17.503Z,56.80
2019-02-25T04:47:37.553Z,57.10
2019-02-25T04:49:58.811Z,56.60
2019-02-25T04:52:19.210Z,56.40
2019-02-25T04:54:39.545Z,56.40
2019-02-25T04:56:59.915Z,56.80
2019-02-25T04:59:20.289Z,57.10
2019-02-25T05:01:40.558Z,57.40
2019-02-25T05:04:00.842Z,57.70
2019-02-25T05:06:21.170Z,57.90
2019-02-25T05:08:41.772Z,58.30
2019-02-25T05:11:02.076Z,59.00
2019-02-25T05:13:22.423Z,60.20
2019-02-25T05:15:42.778Z,60.30
2019-02-25T05:18:03.028Z,61.30
2019-02-25T05:20:24.298Z,61.90
2019-02-25T05:22:44.554Z,62.30
2019-02-25T05:25:07.537Z,62.50
2019-02-25T05:27:27.520Z,63.60
2019-02-25T05:29:48.112Z,63.30
2019-02-25T05:32:08.476Z,63.40
2019-02-25T05:34:28.734Z,63.80
2019-02-25T05:36:48.984Z,63.80
2019-02-25T05:39:09.252Z,65.80
2019-02-25T05:41:29.718Z,64.70
2019-02-25T05:43:49.966Z,64.40
2019-02-25T05:46:10.242Z,64.30
2019-02-25T05:48:30.580Z,62.90
2019-02-25T05:50:50.909Z,63.10
2019-02-25T05:53:11.192Z,63.80
2019-02-25T05:55:31.511Z,63.90
2019-02-25T05:57:51.770Z,63.90
2019-02-25T06:00:16.820Z,63.90
2019-02-25T06:02:37.113Z,62.90
2019-02-25T06:04:57.425Z,62.40
2019-02-25T06:07:17.682Z,62.30
2019-02-25T06:09:38.083Z,61.60
2019-02-25T06:11:58.392Z,61.00
2019-02-25T06:14:18.770Z,60.80
2019-02-25T06:16:39.030Z,61.50
2019-02-25T06:18:59.382Z,62.30
2019-02-25T06:21:19.661Z,62.50
2019-02-25T06:23:40.963Z,63.00
2019-02-25T06:26:01.375Z,63.50
2019-02-25T06:28:21.685Z,64.00
2019-02-25T06:30:42.006Z,63.90
2019-02-25T06:33:02.379Z,63.50
2019-02-25T06:35:22.741Z,63.50
2019-02-25T06:37:43.130Z,63.30
2019-02-25T06:40:03.524Z,62.60
2019-02-25T06:42:23.785Z,60.30
2019-02-25T06:44:44.244Z,58.20
2019-02-25T06:47:04.528Z,57.00
2019-02-25T06:49:24.894Z,57.20
2019-02-25T06:51:45.242Z,57.60
2019-02-25T06:54:05.588Z,58.50
2019-02-25T06:56:25.877Z,58.50
2019-02-25T06:58:46.144Z,59.50
2019-02-25T07:01:06.417Z,60.00
2019-02-25T07:03:26.994Z,60.60
2019-02-25T07:05:51.786Z,60.90
2019-02-25T07:08:13.709Z,60.20
2019-02-25T07:10:41.568Z,59.50
2019-02-25T07:13:06.272Z,59.50
2019-02-25T07:15:28.296Z,58.70
2019-02-25T07:17:50.301Z,58.40
2019-02-25T07:20:12.253Z,57.20
2019-02-25T07:22:36.971Z,56.30
2019-02-25T07:24:59.002Z,56.10
2019-02-25T07:27:21.599Z,56.10
2019-02-25T07:29:59.542Z,56.10
2019-02-25T07:32:24.406Z,55.80
2019-02-25T07:34:46.328Z,55.60
2019-02-25T07:37:14.258Z,54.50
2019-02-25T07:39:52.263Z,54.50
2019-02-25T07:42:17.193Z,54.30
2019-02-25T07:44:48.522Z,53.40
2019-02-25T07:47:10.495Z,53.10
2019-02-25T07:49:47.506Z,53.60
2019-02-25T07:52:21.661Z,54.40
2019-02-25T07:54:58.530Z,54.80
2019-02-25T07:57:38.939Z,55.00
2019-02-25T08:00:03.659Z,54.80
2019-02-25T08:02:27.095Z,55.00
2019-02-25T08:04:49.058Z,55.30
2019-02-25T08:07:28.905Z,55.10
2019-02-25T08:09:53.774Z,55.40
2019-02-25T08:12:32.122Z,55.40
2019-02-25T08:15:00.048Z,54.60
2019-02-25T08:17:37.010Z,54.60
2019-02-25T08:20:08.010Z,53.80
2019-02-25T08:22:41.620Z,53.90
2019-02-25T08:25:11.120Z,54.10
2019-02-25T08:27:32.289Z,53.80
2019-02-25T08:29:57.262Z,52.90
2019-02-25T08:32:26.400Z,53.40
2019-02-25T08:35:05.587Z,53.20
2019-02-25T08:37:33.334Z,53.30
2019-02-25T08:40:38.932Z,52.60
2019-02-25T08:43:06.253Z,52.40
2019-02-25T08:45:37.240Z,51.40
2019-02-25T08:47:59.136Z,51.10
2019-02-25T08:50:19.473Z,50.90
2019-02-25T08:52:39.762Z,50.70
2019-02-25T08:55:00.321Z,50.20
2019-02-25T08:57:20.822Z,49.70
2019-02-25T08:59:41.527Z,49.10
2019-02-25T09:02:02.020Z,49.00
2019-02-25T09:04:22.555Z,48.50
2019-02-25T09:06:42.841Z,48.10
2019-02-25T09:09:04.083Z,47.50
2019-02-25T09:11:25.553Z,46.00
2019-02-25T09:13:45.940Z,46.40
2019-02-25T09:16:06.272Z,47.40
2019-02-25T09:18:26.534Z,47.30
2019-02-25T09:20:47.891Z,46.80
2019-02-25T09:23:08.262Z,46.20
2019-02-25T09:25:28.575Z,46.00
2019-02-25T09:27:48.962Z,46.40
2019-02-25T09:30:12.391Z,46.80
2019-02-25T09:32:34.055Z,47.30
2019-02-25T09:34:54.313Z,47.20
2019-02-25T09:37:14.577Z,47.40
2019-02-25T09:39:35.019Z,47.40
2019-02-25T09:41:56.587Z,47.30
2019-02-25T09:44:16.866Z,47.20
2019-02-25T09:46:37.217Z,46.90
2019-02-25T09:48:57.633Z,47.00
2019-02-25T09:51:17.960Z,46.70
2019-02-25T09:53:38.336Z,47.20
2019-02-25T09:55:58.753Z,47.10
2019-02-25T09:58:19.040Z,47.60
2019-02-25T10:00:39.349Z,47.60
2019-02-25T10:02:59.685Z,47.10
2019-02-25T10:05:20.045Z,47.10
2019-02-25T10:07:41.490Z,47.80
2019-02-25T10:10:01.810Z,47.70
2019-02-25T10:12:22.166Z,48.30
2019-02-25T10:14:42.550Z,46.60
2019-02-25T10:17:02.914Z,47.30
2019-02-25T10:19:23.182Z,45.10
2019-02-25T10:21:43.483Z,43.50
2019-02-25T10:24:03.918Z,43.20
2019-02-25T10:26:24.201Z,44.00
2019-02-25T10:28:44.011Z,42.20
2019-02-25T10:31:03.754Z,39.30
2019-02-25T10:33:24.093Z,38.70
2019-02-25T10:35:44.403Z,38.90
2019-02-25T10:38:06.576Z,40.10
2019-02-25T10:40:27.567Z,41.40
2019-02-25T10:42:47.965Z,40.60
2019-02-25T10:45:13.053Z,39.10
2019-02-25T10:47:32.443Z,38.70
2019-02-25T10:49:52.148Z,39.80
2019-02-25T10:52:13.351Z,42.00
2019-02-25T10:54:34.037Z,43.10
2019-02-25T10:56:55.855Z,43.30
2019-02-25T10:59:16.257Z,43.40
2019-02-25T11:01:37.531Z,44.50
2019-02-25T11:03:58.076Z,44.90
2019-02-25T11:06:18.436Z,45.60
2019-02-25T11:08:41.488Z,46.10
2019-02-25T11:11:07.044Z,46.40
2019-02-25T11:13:27.628Z,45.80
2019-02-25T11:15:49.379Z,45.80
2019-02-25T11:18:10.736Z,46.10
2019-02-25T11:20:31.844Z,46.50
2019-02-25T11:22:54.889Z,46.60
2019-02-25T11:25:15.669Z,46.90
2019-02-25T11:27:37.722Z,46.90
2019-02-25T11:29:59.713Z,46.10
2019-02-25T11:32:25.821Z,45.90
2019-02-25T11:34:46.312Z,45.50
2019-02-25T11:37:06.584Z,46.00
2019-02-25T11:39:27.575Z,46.60
2019-02-25T11:41:48.867Z,47.20
2019-02-25T11:44:09.255Z,45.50
2019-02-25T11:46:29.651Z,44.60
2019-02-25T11:48:50.032Z,42.90
2019-02-25T11:51:09.829Z,41.20
2019-02-25T11:53:29.552Z,41.80
2019-02-25T11:55:49.962Z,40.40
2019-02-25T11:58:09.663Z,37.30
2019-02-25T12:00:29.975Z,36.80
2019-02-25T12:02:50.068Z,37.10
2019-02-25T12:05:10.775Z,35.40
2019-02-25T12:07:30.861Z,33.40
2019-02-25T12:09:50.967Z,31.50
2019-02-25T12:12:11.034Z,30.00
2019-02-25T12:14:32.187Z,30.20
2019-02-25T12:16:52.278Z,29.70
2019-02-25T12:19:17.959Z,29.10
2019-02-25T12:21:34.177Z,29.20
2019-02-25T12:23:54.295Z,30.30
2019-02-25T12:26:14.366Z,30.70
2019-02-25T12:28:34.461Z,30.00
2019-02-25T12:30:54.660Z,29.40
2019-02-25T12:33:14.730Z,31.00
2019-02-25T12:35:34.832Z,29.60
2019-02-25T12:37:54.956Z,28.50
2019-02-25T12:40:18.337Z,30.00
2019-02-25T12:42:38.329Z,30.00
2019-02-25T12:44:58.758Z,32.50
2019-02-25T12:47:18.867Z,34.80
2019-02-25T12:49:38.962Z,34.90
2019-02-25T12:52:02.915Z,35.20
2019-02-25T12:54:22.737Z,37.30
2019-02-25T12:56:42.880Z,37.80
2019-02-25T12:59:05.090Z,36.20
2019-02-25T13:01:24.574Z,36.50
2019-02-25T13:03:44.612Z,35.60
2019-02-25T13:06:04.701Z,34.10
2019-02-25T13:08:24.778Z,35.00
2019-02-25T13:10:44.975Z,36.00
2019-02-25T13:13:05.078Z,36.80
2019-02-25T13:15:25.158Z,36.00
2019-02-25T13:17:45.238Z,34.80
2019-02-25T13:20:08.496Z,35.80
2019-02-25T13:22:28.545Z,34.90
2019-02-25T13:24:48.618Z,31.80
2019-02-25T13:27:11.059Z,32.80
2019-02-25T13:29:31.858Z,30.40
2019-02-25T13:31:52.424Z,29.00
2019-02-25T13:34:12.941Z,29.90
2019-02-25T13:36:33.406Z,28.60
2019-02-25T13:38:53.461Z,30.10
2019-02-25T13:41:13.645Z,30.10
2019-02-25T13:43:34.177Z,33.10
2019-02-25T13:45:54.669Z,31.90
2019-02-25T13:48:15.016Z,28.70
2019-02-25T13:50:35.322Z,26.90
2019-02-25T13:52:55.599Z,26.10
2019-02-25T13:55:20.663Z,27.50
2019-02-25T13:57:41.270Z,27.30
2019-02-25T14:00:01.698Z,27.90
2019-02-25T14:02:22.028Z,27.40
2019-02-25T14:04:42.495Z,29.30
2019-02-25T14:07:02.842Z,28.70
2019-02-25T14:09:23.153Z,31.00
2019-02-25T14:11:44.435Z,32.10
2019-02-25T14:14:05.508Z,31.50
2019-02-25T14:16:26.640Z,30.20
2019-02-25T14:18:46.889Z,30.10
2019-02-25T14:21:07.396Z,33.40
2019-02-25T14:23:27.791Z,31.60
2019-02-25T14:25:48.858Z,33.70
2019-02-25T14:28:09.229Z,36.70
2019-02-25T14:30:32.690Z,38.70
2019-02-25T14:32:53.421Z,34.60
2019-02-25T14:35:13.907Z,32.10
2019-02-25T14:37:34.364Z,29.90
2019-02-25T14:39:56.321Z,33.40
2019-02-25T14:42:18.893Z,32.70
2019-02-25T14:44:41.276Z,33.20
2019-02-25T14:47:02.954Z,32.00
2019-02-25T14:49:23.044Z,32.40
2019-02-25T14:51:43.313Z,35.40
2019-02-25T14:54:03.670Z,37.60
2019-02-25T14:56:24.291Z,38.80
2019-02-25T14:58:45.601Z,39.20
2019-02-25T15:01:06.931Z,40.40
2019-02-25T15:03:28.747Z,40.90
2019-02-25T15:05:50.228Z,41.20
2019-02-25T15:08:11.801Z,41.10
2019-02-25T15:10:33.953Z,41.80
2019-02-25T15:12:58.533Z,42.20
2019-02-25T15:15:18.573Z,43.10
2019-02-25T15:17:38.871Z,44.00
2019-02-25T15:19:59.487Z,44.50
2019-02-25T15:22:19.552Z,45.40
2019-02-25T15:24:44.136Z,46.30
2019-02-25T15:27:04.375Z,46.80
2019-02-25T15:29:24.080Z,47.20
2019-02-25T15:31:46.304Z,47.40
2019-02-25T15:34:06.950Z,47.50
2019-02-25T15:36:29.071Z,47.40
2019-02-25T15:38:50.014Z,47.40
2019-02-25T15:41:11.271Z,47.70
2019-02-25T15:43:31.994Z,48.10
2019-02-25T15:45:52.722Z,48.10
2019-02-25T15:48:15.731Z,48.20
2019-02-25T15:50:36.104Z,48.00
2019-02-25T15:53:00.768Z,48.20
2019-02-25T15:55:21.166Z,48.40
2019-02-25T15:57:42.532Z,48.70
2019-02-25T16:00:03.524Z,48.90
2019-02-25T16:02:24.166Z,49.10
2019-02-25T16:04:44.893Z,49.30
2019-02-25T16:07:10.432Z,49.50
2019-02-25T16:09:31.572Z,49.90
2019-02-25T16:11:53.429Z,49.80
2019-02-25T16:14:14.049Z,50.20
2019-02-25T16:16:34.695Z,50.30
2019-02-25T16:18:55.404Z,50.50
2019-02-25T16:21:16.125Z,50.70
2019-02-25T16:23:40.591Z,51.20
2019-02-25T16:26:01.532Z,51.40
2019-02-25T16:28:22.074Z,51.50
2019-02-25T16:30:44.437Z,51.60
2019-02-25T16:33:07.274Z,52.00
2019-02-25T16:35:27.215Z,53.00
2019-02-25T16:37:50.855Z,52.90
2019-02-25T16:40:19.437Z,53.30
2019-02-25T16:42:41.399Z,53.50
2019-02-25T16:45:06.993Z,54.00
2019-02-25T16:47:32.866Z,54.50
2019-02-25T16:49:50.352Z,54.80
2019-02-25T16:52:11.660Z,55.40
2019-02-25T16:54:32.239Z,55.90
2019-02-25T16:56:55.831Z,56.50
2019-02-25T16:59:18.495Z,56.70
2019-02-25T17:01:39.751Z,56.80
2019-02-25T17:04:00.886Z,57.00
2019-02-25T17:06:21.685Z,57.50
2019-02-25T17:08:42.285Z,58.30
2019-02-25T17:11:02.857Z,58.70
2019-02-25T17:13:23.409Z,58.80
2019-02-25T17:15:46.232Z,59.40
2019-02-25T17:18:06.723Z,59.70
2019-02-25T17:20:28.162Z,59.80
2019-02-25T17:22:49.931Z,60.00
2019-02-25T17:25:12.478Z,60.30
2019-02-25T17:27:32.817Z,60.90
2019-02-25T17:29:55.402Z,61.00
2019-02-25T17:32:16.767Z,61.40
2019-02-25T17:34:40.006Z,61.90
2019-02-25T17:37:01.565Z,62.50
2019-02-25T17:39:22.356Z,63.30
2019-02-25T17:41:44.447Z,64.40
2019-02-25T17:44:05.662Z,63.70
2019-02-25T17:46:28.770Z,64.90
2019-02-25T17:48:49.388Z,65.30
2019-02-25T17:51:10.120Z,65.20
2019-02-25T17:53:32.841Z,65.30
2019-02-25T17:55:53.816Z,65.50
2019-02-25T17:58:16.950Z,65.70
2019-02-25T18:00:42.563Z,65.90
2019-02-25T18:03:03.714Z,66.60
2019-02-25T18:05:24.492Z,67.20
2019-02-25T18:07:46.523Z,67.60
2019-02-25T18:10:10.720Z,68.00
2019-02-25T18:12:31.817Z,68.00
2019-02-25T18:14:54.772Z,68.40
2019-02-25T18:17:19.239Z,68.90
2019-02-25T18:19:41.730Z,68.90
2019-02-25T18:22:02.615Z,69.20
2019-02-25T18:24:26.766Z,69.50
2019-02-25T18:26:46.941Z,70.20
2019-02-25T18:29:09.303Z,70.40
2019-02-25T18:31:30.589Z,70.80
2019-02-25T18:33:52.936Z,71.00
2019-02-25T18:36:13.733Z,71.30
2019-02-25T18:38:34.380Z,71.60
2019-02-25T18:40:55.308Z,71.70
2019-02-25T18:43:16.006Z,71.70
2019-02-25T18:45:38.474Z,72.00
2019-02-25T18:47:58.513Z,72.30
2019-02-25T18:50:21.795Z,72.70
2019-02-25T18:52:44.751Z,72.90
2019-02-25T18:55:08.832Z,72.80
2019-02-25T18:57:29.584Z,73.40
2019-02-25T18:59:50.387Z,73.80
2019-02-25T19:02:12.820Z,74.40
2019-02-25T19:04:34.534Z,74.50
2019-02-25T19:06:54.624Z,74.40
2019-02-25T19:09:18.243Z,74.90
2019-02-25T19:11:40.445Z,74.90
2019-02-25T19:14:03.665Z,75.30
2019-02-25T19:16:24.676Z,75.40
2019-02-25T19:18:46.822Z,75.30
2019-02-25T19:21:09.227Z,75.90
2019-02-25T19:23:32.781Z,76.10
2019-02-25T19:25:52.136Z,76.00
2019-02-25T19:28:18.638Z,76.00
2019-02-25T19:30:37.180Z,75.90
2019-02-25T19:32:57.870Z,75.90
2019-02-25T19:35:18.854Z,76.00
2019-02-25T19:37:40.623Z,76.10
2019-02-25T19:40:05.311Z,76.30
2019-02-25T19:42:25.187Z,76.70
2019-02-25T19:44:46.328Z,77.30
2019-02-25T19:47:07.919Z,77.90
2019-02-25T19:49:28.540Z,78.10
2019-02-25T19:51:50.719Z,78.40
2019-02-25T19:54:13.435Z,78.40
2019-02-25T19:56:33.572Z,78.50
2019-02-25T19:58:54.450Z,78.70
2019-02-25T20:01:15.901Z,78.90
2019-02-25T20:03:37.575Z,78.80
2019-02-25T20:05:58.453Z,79.30
2019-02-25T20:08:19.086Z,79.40
2019-02-25T20:10:39.690Z,80.00
2019-02-25T20:13:00.352Z,80.70
2019-02-25T20:15:25.063Z,81.00
2019-02-25T20:17:48.843Z,81.10
2019-02-25T20:20:12.866Z,81.00
2019-02-25T20:22:36.635Z,81.00
2019-02-25T20:24:57.805Z,81.10
2019-02-25T20:27:18.489Z,81.30
2019-02-25T20:29:40.004Z,81.60
2019-02-25T20:32:01.310Z,81.50
2019-02-25T20:34:25.903Z,81.60
2019-02-25T20:36:48.326Z,81.80
2019-02-25T20:39:11.568Z,82.20
2019-02-25T20:41:32.168Z,82.10
2019-02-25T20:43:55.962Z,82.20
2019-02-25T20:46:14.548Z,82.30
2019-02-25T20:48:35.182Z,82.00
2019-02-25T20:50:55.757Z,81.90
2019-02-25T20:53:19.273Z,82.10
2019-02-25T20:55:38.727Z,82.30
2019-02-25T20:57:58.743Z,82.90
2019-02-25T21:00:24.387Z,82.60
2019-02-25T21:02:45.097Z,83.10
2019-02-25T21:05:09.742Z,83.40
2019-02-25T21:07:31.743Z,83.90
2019-02-25T21:09:51.736Z,84.10
2019-02-25T21:12:13.187Z,84.50
2019-02-25T21:14:35.651Z,84.80
2019-02-25T21:16:56.422Z,85.20
2019-02-25T21:19:19.679Z,84.50
2019-02-25T21:21:39.574Z,83.70
2019-02-25T21:24:01.918Z,83.50
2019-02-25T21:26:27.382Z,84.50
2019-02-25T21:28:46.462Z,84.50
2019-02-25T21:31:10.979Z,84.50
2019-02-25T21:33:30.353Z,85.00
2019-02-25T21:35:50.989Z,85.10
2019-02-25T21:38:12.683Z,85.10
2019-02-25T21:40:33.240Z,85.20
2019-02-25T21:42:56.676Z,85.30
2019-02-25T21:45:20.022Z,85.30
2019-02-25T21:47:39.608Z,84.80
2019-02-25T21:50:01.279Z,85.10
2019-02-25T21:52:23.771Z,85.30
2019-02-25T21:54:45.024Z,85.40
2019-02-25T21:57:09.758Z,85.80
2019-02-25T21:59:32.375Z,86.00
2019-02-25T22:01:55.231Z,86.20
2019-02-25T22:04:15.526Z,86.50
2019-02-25T22:06:36.919Z,86.40
2019-02-25T22:08:58.644Z,85.90
2019-02-25T22:11:22.170Z,86.30
2019-02-25T22:13:42.299Z,84.60
2019-02-25T22:16:03.557Z,84.00
2019-02-25T22:18:26.146Z,83.50
2019-02-25T22:20:47.687Z,83.80
2019-02-25T22:23:09.017Z,83.70
2019-02-25T22:25:29.606Z,83.50
2019-02-25T22:27:50.387Z,83.90
2019-02-25T22:30:15.943Z,83.90
2019-02-25T22:32:38.222Z,83.80
2019-02-25T22:35:00.553Z,84.10
2019-02-25T22:37:22.735Z,84.00
2019-02-25T22:39:46.605Z,84.20
2019-02-25T22:42:09.617Z,84.10
2019-02-25T22:44:31.771Z,83.80
2019-02-25T22:46:52.328Z,83.90
2019-02-25T22:49:12.894Z,83.90
2019-02-25T22:51:35.813Z,84.20
2019-02-25T22:53:56.862Z,84.50
2019-02-25T22:56:18.398Z,84.70
2019-02-25T22:58:40.798Z,84.80
2019-02-25T23:01:04.689Z,84.70
2019-02-25T23:03:27.668Z,84.70
2019-02-25T23:05:50.338Z,84.70
2019-02-25T23:08:13.118Z,85.00
2019-02-25T23:10:33.518Z,84.80
2019-02-25T23:12:54.141Z,84.80
2019-02-25T23:15:15.024Z,84.30
2019-02-25T23:17:37.503Z,84.10
2019-02-25T23:19:59.973Z,84.40
2019-02-25T23:22:19.695Z,84.10
2019-02-25T23:24:43.404Z,84.20
2019-02-25T23:27:02.416Z,84.20
2019-02-25T23:29:27.850Z,84.20
2019-02-25T23:31:46.458Z,83.90
2019-02-25T23:34:07.990Z,84.00
2019-02-25T23:36:28.439Z,83.70
2019-02-25T23:38:50.666Z,84.50
2019-02-25T23:41:12.810Z,83.60
2019-02-25T23:43:37.786Z,83.30
2019-02-25T23:45:58.079Z,83.60
2019-02-25T23:48:19.356Z,83.50
2019-02-25T23:50:39.871Z,83.40
2019-02-25T23:53:00.397Z,83.40
2019-02-25T23:55:23.869Z,83.50
2019-02-25T23:57:42.821Z,83.40
